sensor_id;sensor_type;location;lat;lon;timestamp;P1;durP1;ratioP1;P2;durP2;ratioP2
5742;SDS011;2896;53.500;10.020;2023-01-01T00:00:08;15.53;;;5.77;;
5742;SDS011;2896;53.500;10.020;2023-01-01T00:02:36;13.93;;;5.83;;
5742;SDS011;2896;53.500;10.020;2023-01-01T00:05:02;13.83;;;5.80;;
5742;SDS011;2896;53.500;10.020;2023-01-01T00:07:29;11.67;;;5.43;;
5742;SDS011;2896;53.500;10.020;2023-01-01T00:09:57;19.73;;;5.90;;
5742;SDS011;2896;53.500;10.020;2023-01-01T00:12:42;21.23;;;6.30;;
5742;SDS011;2896;53.500;10.020;2023-01-01T00:15:08;28.40;;;6.07;;
5742;SDS011;2896;53.500;10.020;2023-01-01T00:17:35;8.37;;;4.43;;
5742;SDS011;2896;53.500;10.020;2023-01-01T00:20:01;11.57;;;5.80;;
5742;SDS011;2896;53.500;10.020;2023-01-01T00:22:28;12.67;;;5.60;;
5742;SDS011;2896;53.500;10.020;2023-01-01T00:24:55;14.00;;;6.13;;
5742;SDS011;2896;53.500;10.020;2023-01-01T00:27:23;15.03;;;6.13;;
5742;SDS011;2896;53.500;10.020;2023-01-01T00:29:49;13.23;;;5.87;;
5742;SDS011;2896;53.500;10.020;2023-01-01T00:32:16;12.20;;;4.70;;
5742;SDS011;2896;53.500;10.020;2023-01-01T00:34:42;12.23;;;5.47;;
5742;SDS011;2896;53.500;10.020;2023-01-01T00:37:09;16.47;;;5.93;;
5742;SDS011;2896;53.500;10.020;2023-01-01T00:39:36;20.63;;;6.17;;
5742;SDS011;2896;53.500;10.020;2023-01-01T00:42:02;15.10;;;5.37;;
5742;SDS011;2896;53.500;10.020;2023-01-01T00:44:31;12.37;;;5.77;;
5742;SDS011;2896;53.500;10.020;2023-01-01T00:46:57;24.47;;;6.43;;
5742;SDS011;2896;53.500;10.020;2023-01-01T00:49:24;21.47;;;5.67;;
5742;SDS011;2896;53.500;10.020;2023-01-01T00:51:51;19.03;;;5.30;;
5742;SDS011;2896;53.500;10.020;2023-01-01T00:54:18;14.03;;;5.33;;
5742;SDS011;2896;53.500;10.020;2023-01-01T00:56:45;19.40;;;6.30;;
5742;SDS011;2896;53.500;10.020;2023-01-01T00:59:11;25.13;;;5.00;;
5742;SDS011;2896;53.500;10.020;2023-01-01T01:01:39;20.20;;;5.57;;
5742;SDS011;2896;53.500;10.020;2023-01-01T01:04:06;16.27;;;5.20;;
5742;SDS011;2896;53.500;10.020;2023-01-01T01:06:33;9.77;;;5.20;;
5742;SDS011;2896;53.500;10.020;2023-01-01T01:09:00;16.57;;;5.00;;
5742;SDS011;2896;53.500;10.020;2023-01-01T01:11:27;22.53;;;5.60;;
5742;SDS011;2896;53.500;10.020;2023-01-01T01:13:54;12.50;;;5.90;;
5742;SDS011;2896;53.500;10.020;2023-01-01T01:16:22;19.20;;;4.90;;
5742;SDS011;2896;53.500;10.020;2023-01-01T01:18:52;14.00;;;5.40;;
5742;SDS011;2896;53.500;10.020;2023-01-01T01:21:20;22.87;;;5.00;;
5742;SDS011;2896;53.500;10.020;2023-01-01T01:23:49;17.03;;;5.43;;
5742;SDS011;2896;53.500;10.020;2023-01-01T01:26:18;10.77;;;5.00;;
5742;SDS011;2896;53.500;10.020;2023-01-01T01:28:45;11.40;;;5.73;;
5742;SDS011;2896;53.500;10.020;2023-01-01T01:31:12;15.70;;;4.77;;
5742;SDS011;2896;53.500;10.020;2023-01-01T01:33:39;16.20;;;5.40;;
5742;SDS011;2896;53.500;10.020;2023-01-01T01:36:10;11.63;;;5.00;;
5742;SDS011;2896;53.500;10.020;2023-01-01T01:38:37;13.87;;;5.37;;
5742;SDS011;2896;53.500;10.020;2023-01-01T01:41:04;18.87;;;5.00;;
5742;SDS011;2896;53.500;10.020;2023-01-01T01:46:29;17.57;;;6.43;;
5742;SDS011;2896;53.500;10.020;2023-01-01T01:48:58;12.33;;;5.23;;
5742;SDS011;2896;53.500;10.020;2023-01-01T01:51:30;14.50;;;4.53;;
5742;SDS011;2896;53.500;10.020;2023-01-01T01:54:00;12.27;;;5.77;;
5742;SDS011;2896;53.500;10.020;2023-01-01T01:56:30;11.37;;;5.10;;
5742;SDS011;2896;53.500;10.020;2023-01-01T01:59:05;11.40;;;4.80;;
5742;SDS011;2896;53.500;10.020;2023-01-01T02:01:32;16.93;;;5.10;;
5742;SDS011;2896;53.500;10.020;2023-01-01T02:03:59;16.73;;;5.10;;
5742;SDS011;2896;53.500;10.020;2023-01-01T02:06:27;18.60;;;5.67;;
5742;SDS011;2896;53.500;10.020;2023-01-01T02:08:58;7.50;;;4.60;;
5742;SDS011;2896;53.500;10.020;2023-01-01T02:11:28;16.73;;;4.90;;
5742;SDS011;2896;53.500;10.020;2023-01-01T02:13:55;18.90;;;4.60;;
5742;SDS011;2896;53.500;10.020;2023-01-01T02:16:25;9.10;;;4.60;;
5742;SDS011;2896;53.500;10.020;2023-01-01T02:18:56;12.87;;;5.20;;
5742;SDS011;2896;53.500;10.020;2023-01-01T02:21:29;10.00;;;4.60;;
5742;SDS011;2896;53.500;10.020;2023-01-01T02:24:05;8.70;;;4.73;;
5742;SDS011;2896;53.500;10.020;2023-01-01T02:26:45;15.87;;;5.27;;
5742;SDS011;2896;53.500;10.020;2023-01-01T02:29:20;9.33;;;4.70;;
5742;SDS011;2896;53.500;10.020;2023-01-01T02:31:55;9.80;;;4.83;;
5742;SDS011;2896;53.500;10.020;2023-01-01T02:34:27;15.30;;;5.90;;
5742;SDS011;2896;53.500;10.020;2023-01-01T02:36:58;9.33;;;4.40;;
5742;SDS011;2896;53.500;10.020;2023-01-01T02:39:28;23.67;;;4.80;;
5742;SDS011;2896;53.500;10.020;2023-01-01T02:41:58;6.27;;;4.60;;
5742;SDS011;2896;53.500;10.020;2023-01-01T02:44:29;10.73;;;4.73;;
5742;SDS011;2896;53.500;10.020;2023-01-01T02:47:05;12.13;;;5.03;;
5742;SDS011;2896;53.500;10.020;2023-01-01T02:49:32;11.67;;;5.20;;
5742;SDS011;2896;53.500;10.020;2023-01-01T02:52:03;24.50;;;5.13;;
5742;SDS011;2896;53.500;10.020;2023-01-01T02:54:36;16.27;;;5.27;;
5742;SDS011;2896;53.500;10.020;2023-01-01T02:57:09;11.10;;;5.47;;
5742;SDS011;2896;53.500;10.020;2023-01-01T02:59:46;16.33;;;6.50;;
5742;SDS011;2896;53.500;10.020;2023-01-01T03:02:41;17.67;;;4.53;;
5742;SDS011;2896;53.500;10.020;2023-01-01T03:05:18;14.20;;;5.87;;
5742;SDS011;2896;53.500;10.020;2023-01-01T03:07:59;11.80;;;5.57;;
5742;SDS011;2896;53.500;10.020;2023-01-01T03:10:32;23.93;;;6.23;;
5742;SDS011;2896;53.500;10.020;2023-01-01T03:13:06;8.87;;;5.30;;
5742;SDS011;2896;53.500;10.020;2023-01-01T03:15:39;17.47;;;6.00;;
5742;SDS011;2896;53.500;10.020;2023-01-01T03:18:13;17.53;;;7.83;;
5742;SDS011;2896;53.500;10.020;2023-01-01T03:20:44;15.83;;;6.67;;
5742;SDS011;2896;53.500;10.020;2023-01-01T03:23:16;23.03;;;7.83;;
5742;SDS011;2896;53.500;10.020;2023-01-01T03:25:47;10.47;;;6.30;;
5742;SDS011;2896;53.500;10.020;2023-01-01T03:28:17;29.17;;;6.50;;
5742;SDS011;2896;53.500;10.020;2023-01-01T03:30:48;17.07;;;6.33;;
5742;SDS011;2896;53.500;10.020;2023-01-01T03:33:19;17.60;;;7.93;;
5742;SDS011;2896;53.500;10.020;2023-01-01T03:35:52;12.30;;;5.90;;
5742;SDS011;2896;53.500;10.020;2023-01-01T03:38:23;19.07;;;6.57;;
5742;SDS011;2896;53.500;10.020;2023-01-01T03:40:56;24.73;;;7.33;;
5742;SDS011;2896;53.500;10.020;2023-01-01T03:43:30;12.40;;;6.60;;
5742;SDS011;2896;53.500;10.020;2023-01-01T03:46:05;16.47;;;7.10;;
5742;SDS011;2896;53.500;10.020;2023-01-01T03:48:33;11.00;;;6.60;;
5742;SDS011;2896;53.500;10.020;2023-01-01T03:51:21;11.47;;;6.63;;
5742;SDS011;2896;53.500;10.020;2023-01-01T03:53:52;15.10;;;6.87;;
5742;SDS011;2896;53.500;10.020;2023-01-01T03:56:25;14.30;;;5.17;;
5742;SDS011;2896;53.500;10.020;2023-01-01T03:58:59;11.23;;;5.60;;
5742;SDS011;2896;53.500;10.020;2023-01-01T04:01:35;22.13;;;6.40;;
5742;SDS011;2896;53.500;10.020;2023-01-01T04:04:05;14.20;;;6.20;;
5742;SDS011;2896;53.500;10.020;2023-01-01T04:06:32;16.87;;;5.90;;
5742;SDS011;2896;53.500;10.020;2023-01-01T04:08:59;18.03;;;5.90;;
5742;SDS011;2896;53.500;10.020;2023-01-01T04:11:28;16.57;;;6.93;;
5742;SDS011;2896;53.500;10.020;2023-01-01T04:14:24;23.10;;;7.43;;
5742;SDS011;2896;53.500;10.020;2023-01-01T04:16:53;12.90;;;5.77;;
5742;SDS011;2896;53.500;10.020;2023-01-01T04:19:19;10.93;;;5.83;;
5742;SDS011;2896;53.500;10.020;2023-01-01T04:21:46;18.90;;;6.10;;
5742;SDS011;2896;53.500;10.020;2023-01-01T04:24:13;15.10;;;6.10;;
5742;SDS011;2896;53.500;10.020;2023-01-01T04:26:39;17.00;;;6.00;;
5742;SDS011;2896;53.500;10.020;2023-01-01T04:29:06;21.93;;;5.50;;
5742;SDS011;2896;53.500;10.020;2023-01-01T04:31:33;16.20;;;6.30;;
5742;SDS011;2896;53.500;10.020;2023-01-01T04:34:01;17.33;;;6.43;;
5742;SDS011;2896;53.500;10.020;2023-01-01T04:36:28;9.10;;;6.13;;
5742;SDS011;2896;53.500;10.020;2023-01-01T04:38:55;8.70;;;5.20;;
5742;SDS011;2896;53.500;10.020;2023-01-01T04:41:21;13.50;;;6.13;;
5742;SDS011;2896;53.500;10.020;2023-01-01T04:43:48;15.33;;;6.10;;
5742;SDS011;2896;53.500;10.020;2023-01-01T04:46:15;16.70;;;6.37;;
5742;SDS011;2896;53.500;10.020;2023-01-01T04:48:43;12.87;;;5.50;;
5742;SDS011;2896;53.500;10.020;2023-01-01T04:51:12;11.23;;;5.40;;
5742;SDS011;2896;53.500;10.020;2023-01-01T04:53:40;10.73;;;5.10;;
5742;SDS011;2896;53.500;10.020;2023-01-01T04:56:07;15.83;;;5.67;;
5742;SDS011;2896;53.500;10.020;2023-01-01T04:58:36;14.63;;;6.03;;
5742;SDS011;2896;53.500;10.020;2023-01-01T05:01:04;11.40;;;5.73;;
5742;SDS011;2896;53.500;10.020;2023-01-01T05:03:31;12.07;;;5.47;;
5742;SDS011;2896;53.500;10.020;2023-01-01T05:05:59;20.87;;;5.70;;
5742;SDS011;2896;53.500;10.020;2023-01-01T05:08:27;10.90;;;4.70;;
5742;SDS011;2896;53.500;10.020;2023-01-01T05:10:58;17.37;;;5.43;;
5742;SDS011;2896;53.500;10.020;2023-01-01T05:13:26;10.93;;;5.03;;
5742;SDS011;2896;53.500;10.020;2023-01-01T05:15:52;22.83;;;6.17;;
5742;SDS011;2896;53.500;10.020;2023-01-01T05:18:19;11.00;;;4.93;;
5742;SDS011;2896;53.500;10.020;2023-01-01T05:20:45;22.03;;;6.63;;
5742;SDS011;2896;53.500;10.020;2023-01-01T05:23:13;12.90;;;4.93;;
5742;SDS011;2896;53.500;10.020;2023-01-01T05:25:41;13.73;;;5.20;;
5742;SDS011;2896;53.500;10.020;2023-01-01T05:28:08;13.33;;;5.17;;
5742;SDS011;2896;53.500;10.020;2023-01-01T05:30:37;13.93;;;6.40;;
5742;SDS011;2896;53.500;10.020;2023-01-01T05:33:04;13.20;;;4.83;;
5742;SDS011;2896;53.500;10.020;2023-01-01T05:35:30;16.40;;;5.13;;
5742;SDS011;2896;53.500;10.020;2023-01-01T05:37:57;15.40;;;5.10;;
5742;SDS011;2896;53.500;10.020;2023-01-01T05:40:24;9.63;;;4.53;;
5742;SDS011;2896;53.500;10.020;2023-01-01T05:42:52;15.10;;;4.90;;
5742;SDS011;2896;53.500;10.020;2023-01-01T05:45:18;6.70;;;4.30;;
5742;SDS011;2896;53.500;10.020;2023-01-01T05:47:45;14.83;;;4.20;;
5742;SDS011;2896;53.500;10.020;2023-01-01T05:50:12;9.43;;;4.17;;
5742;SDS011;2896;53.500;10.020;2023-01-01T05:52:38;6.90;;;3.67;;
5742;SDS011;2896;53.500;10.020;2023-01-01T05:55:06;10.53;;;3.87;;
5742;SDS011;2896;53.500;10.020;2023-01-01T05:57:33;15.70;;;4.43;;
5742;SDS011;2896;53.500;10.020;2023-01-01T06:00:00;9.03;;;4.53;;
5742;SDS011;2896;53.500;10.020;2023-01-01T06:02:28;7.60;;;3.70;;
5742;SDS011;2896;53.500;10.020;2023-01-01T06:04:55;10.03;;;3.93;;
5742;SDS011;2896;53.500;10.020;2023-01-01T06:07:22;12.73;;;4.20;;
5742;SDS011;2896;53.500;10.020;2023-01-01T06:09:48;12.50;;;3.53;;
5742;SDS011;2896;53.500;10.020;2023-01-01T06:12:15;12.20;;;4.10;;
5742;SDS011;2896;53.500;10.020;2023-01-01T06:14:42;6.70;;;3.70;;
5742;SDS011;2896;53.500;10.020;2023-01-01T06:17:10;9.37;;;4.30;;
5742;SDS011;2896;53.500;10.020;2023-01-01T06:19:36;9.73;;;4.10;;
5742;SDS011;2896;53.500;10.020;2023-01-01T06:22:03;7.30;;;3.73;;
5742;SDS011;2896;53.500;10.020;2023-01-01T06:24:30;11.57;;;4.30;;
5742;SDS011;2896;53.500;10.020;2023-01-01T06:26:57;14.50;;;4.30;;
5742;SDS011;2896;53.500;10.020;2023-01-01T06:29:23;7.97;;;4.17;;
5742;SDS011;2896;53.500;10.020;2023-01-01T06:31:50;10.10;;;4.30;;
5742;SDS011;2896;53.500;10.020;2023-01-01T06:34:18;9.73;;;3.97;;
5742;SDS011;2896;53.500;10.020;2023-01-01T06:36:44;10.97;;;3.63;;
5742;SDS011;2896;53.500;10.020;2023-01-01T06:39:11;9.80;;;4.20;;
5742;SDS011;2896;53.500;10.020;2023-01-01T06:41:37;8.40;;;3.43;;
5742;SDS011;2896;53.500;10.020;2023-01-01T06:44:04;7.03;;;3.43;;
5742;SDS011;2896;53.500;10.020;2023-01-01T06:46:31;10.50;;;3.43;;
5742;SDS011;2896;53.500;10.020;2023-01-01T06:48:59;7.03;;;3.80;;
5742;SDS011;2896;53.500;10.020;2023-01-01T06:51:30;6.13;;;3.20;;
5742;SDS011;2896;53.500;10.020;2023-01-01T06:53:58;10.73;;;3.60;;
5742;SDS011;2896;53.500;10.020;2023-01-01T06:56:26;15.10;;;3.97;;
5742;SDS011;2896;53.500;10.020;2023-01-01T06:58:53;5.33;;;3.03;;
5742;SDS011;2896;53.500;10.020;2023-01-01T07:01:20;10.60;;;3.23;;
5742;SDS011;2896;53.500;10.020;2023-01-01T07:03:49;9.17;;;3.50;;
5742;SDS011;2896;53.500;10.020;2023-01-01T07:06:17;7.97;;;3.00;;
5742;SDS011;2896;53.500;10.020;2023-01-01T07:08:45;6.93;;;3.10;;
5742;SDS011;2896;53.500;10.020;2023-01-01T07:11:11;4.70;;;3.20;;
5742;SDS011;2896;53.500;10.020;2023-01-01T07:13:38;5.57;;;3.40;;
5742;SDS011;2896;53.500;10.020;2023-01-01T07:16:05;13.87;;;3.40;;
5742;SDS011;2896;53.500;10.020;2023-01-01T07:18:32;5.40;;;2.93;;
5742;SDS011;2896;53.500;10.020;2023-01-01T07:21:00;9.37;;;3.57;;
5742;SDS011;2896;53.500;10.020;2023-01-01T07:23:29;4.40;;;3.27;;
5742;SDS011;2896;53.500;10.020;2023-01-01T07:25:59;16.40;;;3.17;;
5742;SDS011;2896;53.500;10.020;2023-01-01T07:28:26;13.20;;;2.77;;
5742;SDS011;2896;53.500;10.020;2023-01-01T07:30:53;10.80;;;2.60;;
5742;SDS011;2896;53.500;10.020;2023-01-01T07:33:20;9.37;;;3.00;;
5742;SDS011;2896;53.500;10.020;2023-01-01T07:35:47;6.10;;;2.40;;
5742;SDS011;2896;53.500;10.020;2023-01-01T07:38:14;11.33;;;3.10;;
5742;SDS011;2896;53.500;10.020;2023-01-01T07:40:41;7.50;;;2.40;;
5742;SDS011;2896;53.500;10.020;2023-01-01T07:43:10;7.37;;;2.80;;
5742;SDS011;2896;53.500;10.020;2023-01-01T07:45:38;4.70;;;2.50;;
5742;SDS011;2896;53.500;10.020;2023-01-01T07:48:05;3.20;;;2.33;;
5742;SDS011;2896;53.500;10.020;2023-01-01T07:50:32;8.33;;;2.50;;
5742;SDS011;2896;53.500;10.020;2023-01-01T07:53:01;11.03;;;2.60;;
5742;SDS011;2896;53.500;10.020;2023-01-01T07:55:27;11.63;;;3.40;;
5742;SDS011;2896;53.500;10.020;2023-01-01T07:57:54;10.27;;;2.73;;
5742;SDS011;2896;53.500;10.020;2023-01-01T08:00:22;9.70;;;2.40;;
5742;SDS011;2896;53.500;10.020;2023-01-01T08:02:49;3.07;;;1.70;;
5742;SDS011;2896;53.500;10.020;2023-01-01T08:05:15;3.97;;;1.87;;
5742;SDS011;2896;53.500;10.020;2023-01-01T08:07:44;4.67;;;2.10;;
5742;SDS011;2896;53.500;10.020;2023-01-01T08:10:12;8.07;;;2.23;;
5742;SDS011;2896;53.500;10.020;2023-01-01T08:12:39;5.63;;;1.90;;
5742;SDS011;2896;53.500;10.020;2023-01-01T08:15:06;9.57;;;2.50;;
5742;SDS011;2896;53.500;10.020;2023-01-01T08:17:35;6.50;;;2.90;;
5742;SDS011;2896;53.500;10.020;2023-01-01T08:20:02;15.67;;;2.57;;
5742;SDS011;2896;53.500;10.020;2023-01-01T08:22:29;5.47;;;2.37;;
5742;SDS011;2896;53.500;10.020;2023-01-01T08:24:56;11.90;;;2.40;;
5742;SDS011;2896;53.500;10.020;2023-01-01T08:27:22;2.67;;;2.17;;
5742;SDS011;2896;53.500;10.020;2023-01-01T08:29:49;8.80;;;2.20;;
5742;SDS011;2896;53.500;10.020;2023-01-01T08:32:16;8.13;;;2.10;;
5742;SDS011;2896;53.500;10.020;2023-01-01T08:34:44;4.53;;;2.07;;
5742;SDS011;2896;53.500;10.020;2023-01-01T08:37:10;8.53;;;2.20;;
5742;SDS011;2896;53.500;10.020;2023-01-01T08:39:38;7.07;;;1.67;;
5742;SDS011;2896;53.500;10.020;2023-01-01T08:42:05;2.53;;;2.07;;
5742;SDS011;2896;53.500;10.020;2023-01-01T08:44:32;2.37;;;2.00;;
5742;SDS011;2896;53.500;10.020;2023-01-01T08:46:58;7.93;;;2.17;;
5742;SDS011;2896;53.500;10.020;2023-01-01T08:49:25;6.13;;;1.87;;
5742;SDS011;2896;53.500;10.020;2023-01-01T08:51:53;2.80;;;1.73;;
5742;SDS011;2896;53.500;10.020;2023-01-01T08:54:20;1.80;;;1.70;;
5742;SDS011;2896;53.500;10.020;2023-01-01T08:56:46;2.70;;;1.90;;
5742;SDS011;2896;53.500;10.020;2023-01-01T08:59:13;7.70;;;2.43;;
5742;SDS011;2896;53.500;10.020;2023-01-01T09:01:40;2.90;;;1.63;;
5742;SDS011;2896;53.500;10.020;2023-01-01T09:04:06;9.43;;;3.10;;
5742;SDS011;2896;53.500;10.020;2023-01-01T09:06:36;5.00;;;2.20;;
5742;SDS011;2896;53.500;10.020;2023-01-01T09:09:04;2.30;;;1.83;;
5742;SDS011;2896;53.500;10.020;2023-01-01T09:11:31;5.53;;;2.07;;
5742;SDS011;2896;53.500;10.020;2023-01-01T09:13:57;5.87;;;2.30;;
5742;SDS011;2896;53.500;10.020;2023-01-01T09:16:24;13.70;;;2.70;;
5742;SDS011;2896;53.500;10.020;2023-01-01T09:18:51;2.00;;;1.90;;
5742;SDS011;2896;53.500;10.020;2023-01-01T09:21:18;3.60;;;1.50;;
5742;SDS011;2896;53.500;10.020;2023-01-01T09:23:44;7.60;;;2.03;;
5742;SDS011;2896;53.500;10.020;2023-01-01T09:26:12;5.43;;;1.80;;
5742;SDS011;2896;53.500;10.020;2023-01-01T09:28:39;8.40;;;2.60;;
5742;SDS011;2896;53.500;10.020;2023-01-01T09:31:05;3.50;;;1.90;;
5742;SDS011;2896;53.500;10.020;2023-01-01T09:33:32;3.03;;;1.70;;
5742;SDS011;2896;53.500;10.020;2023-01-01T09:36:15;5.90;;;2.17;;
5742;SDS011;2896;53.500;10.020;2023-01-01T09:38:53;4.57;;;1.40;;
5742;SDS011;2896;53.500;10.020;2023-01-01T09:41:23;4.60;;;2.10;;
5742;SDS011;2896;53.500;10.020;2023-01-01T09:43:58;5.70;;;1.60;;
5742;SDS011;2896;53.500;10.020;2023-01-01T09:46:30;6.70;;;2.13;;
5742;SDS011;2896;53.500;10.020;2023-01-01T09:48:58;4.57;;;1.73;;
5742;SDS011;2896;53.500;10.020;2023-01-01T09:51:29;19.23;;;2.83;;
5742;SDS011;2896;53.500;10.020;2023-01-01T09:54:01;3.50;;;1.80;;
5742;SDS011;2896;53.500;10.020;2023-01-01T09:56:36;8.03;;;2.83;;
5742;SDS011;2896;53.500;10.020;2023-01-01T09:59:07;4.00;;;1.97;;
5742;SDS011;2896;53.500;10.020;2023-01-01T10:01:37;9.43;;;2.30;;
5742;SDS011;2896;53.500;10.020;2023-01-01T10:04:18;2.60;;;1.73;;
5742;SDS011;2896;53.500;10.020;2023-01-01T10:07:05;2.67;;;2.00;;
5742;SDS011;2896;53.500;10.020;2023-01-01T10:09:41;6.60;;;2.40;;
5742;SDS011;2896;53.500;10.020;2023-01-01T10:12:17;3.67;;;1.90;;
5742;SDS011;2896;53.500;10.020;2023-01-01T10:14:51;5.37;;;2.10;;
5742;SDS011;2896;53.500;10.020;2023-01-01T10:17:26;6.97;;;1.80;;
5742;SDS011;2896;53.500;10.020;2023-01-01T10:19:59;4.87;;;2.07;;
5742;SDS011;2896;53.500;10.020;2023-01-01T10:22:30;4.80;;;1.97;;
5742;SDS011;2896;53.500;10.020;2023-01-01T10:25:00;4.80;;;2.27;;
5742;SDS011;2896;53.500;10.020;2023-01-01T10:27:33;4.40;;;1.80;;
5742;SDS011;2896;53.500;10.020;2023-01-01T10:30:08;7.53;;;2.30;;
5742;SDS011;2896;53.500;10.020;2023-01-01T10:32:38;5.20;;;1.70;;
5742;SDS011;2896;53.500;10.020;2023-01-01T10:35:10;4.20;;;1.93;;
5742;SDS011;2896;53.500;10.020;2023-01-01T10:37:38;4.97;;;1.60;;
5742;SDS011;2896;53.500;10.020;2023-01-01T10:40:09;6.43;;;1.93;;
5742;SDS011;2896;53.500;10.020;2023-01-01T10:42:42;1.80;;;1.70;;
5742;SDS011;2896;53.500;10.020;2023-01-01T10:45:12;3.53;;;2.10;;
5742;SDS011;2896;53.500;10.020;2023-01-01T10:47:40;5.07;;;1.97;;
5742;SDS011;2896;53.500;10.020;2023-01-01T10:50:40;2.33;;;1.50;;
5742;SDS011;2896;53.500;10.020;2023-01-01T10:53:17;2.40;;;1.40;;
5742;SDS011;2896;53.500;10.020;2023-01-01T10:55:47;4.20;;;2.27;;
5742;SDS011;2896;53.500;10.020;2023-01-01T10:58:25;8.90;;;1.73;;
5742;SDS011;2896;53.500;10.020;2023-01-01T11:00:58;13.17;;;2.10;;
5742;SDS011;2896;53.500;10.020;2023-01-01T11:03:25;5.60;;;2.13;;
5742;SDS011;2896;53.500;10.020;2023-01-01T11:06:02;8.40;;;1.70;;
5742;SDS011;2896;53.500;10.020;2023-01-01T11:08:32;4.60;;;1.43;;
5742;SDS011;2896;53.500;10.020;2023-01-01T11:11:01;3.60;;;1.40;;
5742;SDS011;2896;53.500;10.020;2023-01-01T11:13:29;4.77;;;1.30;;
5742;SDS011;2896;53.500;10.020;2023-01-01T11:15:57;2.77;;;1.67;;
5742;SDS011;2896;53.500;10.020;2023-01-01T11:18:25;3.87;;;1.20;;
5742;SDS011;2896;53.500;10.020;2023-01-01T11:20:59;6.83;;;1.53;;
5742;SDS011;2896;53.500;10.020;2023-01-01T11:23:28;9.13;;;1.60;;
5742;SDS011;2896;53.500;10.020;2023-01-01T11:25:57;3.40;;;2.43;;
5742;SDS011;2896;53.500;10.020;2023-01-01T11:28:26;3.10;;;1.90;;
5742;SDS011;2896;53.500;10.020;2023-01-01T11:31:13;3.30;;;1.57;;
5742;SDS011;2896;53.500;10.020;2023-01-01T11:33:43;4.93;;;1.57;;
5742;SDS011;2896;53.500;10.020;2023-01-01T11:36:19;11.00;;;1.40;;
5742;SDS011;2896;53.500;10.020;2023-01-01T11:38:50;6.00;;;1.10;;
5742;SDS011;2896;53.500;10.020;2023-01-01T11:41:39;6.00;;;1.80;;
5742;SDS011;2896;53.500;10.020;2023-01-01T11:44:07;2.33;;;1.40;;
5742;SDS011;2896;53.500;10.020;2023-01-01T11:46:36;1.50;;;1.40;;
5742;SDS011;2896;53.500;10.020;2023-01-01T11:49:10;7.43;;;1.97;;
5742;SDS011;2896;53.500;10.020;2023-01-01T11:51:38;1.33;;;1.23;;
5742;SDS011;2896;53.500;10.020;2023-01-01T11:54:10;8.23;;;1.53;;
5742;SDS011;2896;53.500;10.020;2023-01-01T11:56:55;1.73;;;1.57;;
5742;SDS011;2896;53.500;10.020;2023-01-01T11:59:28;5.13;;;1.53;;
5742;SDS011;2896;53.500;10.020;2023-01-01T12:02:03;15.23;;;1.10;;
5742;SDS011;2896;53.500;10.020;2023-01-01T12:04:36;4.83;;;1.27;;
5742;SDS011;2896;53.500;10.020;2023-01-01T12:07:08;3.13;;;1.20;;
5742;SDS011;2896;53.500;10.020;2023-01-01T12:09:39;3.60;;;1.50;;
5742;SDS011;2896;53.500;10.020;2023-01-01T12:12:12;2.10;;;1.20;;
5742;SDS011;2896;53.500;10.020;2023-01-01T12:14:45;2.23;;;1.10;;
5742;SDS011;2896;53.500;10.020;2023-01-01T12:17:21;5.00;;;1.43;;
5742;SDS011;2896;53.500;10.020;2023-01-01T12:19:55;3.13;;;1.40;;
5742;SDS011;2896;53.500;10.020;2023-01-01T12:22:26;1.90;;;1.40;;
5742;SDS011;2896;53.500;10.020;2023-01-01T12:24:53;5.10;;;1.30;;
5742;SDS011;2896;53.500;10.020;2023-01-01T12:27:26;3.70;;;1.50;;
5742;SDS011;2896;53.500;10.020;2023-01-01T12:30:03;8.40;;;1.57;;
5742;SDS011;2896;53.500;10.020;2023-01-01T12:32:44;4.30;;;1.70;;
5742;SDS011;2896;53.500;10.020;2023-01-01T12:35:30;5.60;;;1.40;;
5742;SDS011;2896;53.500;10.020;2023-01-01T12:38:13;3.10;;;1.30;;
5742;SDS011;2896;53.500;10.020;2023-01-01T12:40:54;7.93;;;1.10;;
5742;SDS011;2896;53.500;10.020;2023-01-01T12:43:31;12.20;;;1.50;;
5742;SDS011;2896;53.500;10.020;2023-01-01T12:46:12;4.40;;;1.50;;
5742;SDS011;2896;53.500;10.020;2023-01-01T12:52:02;3.57;;;1.80;;
5742;SDS011;2896;53.500;10.020;2023-01-01T12:54:46;4.23;;;1.60;;
5742;SDS011;2896;53.500;10.020;2023-01-01T12:57:47;3.40;;;1.80;;
5742;SDS011;2896;53.500;10.020;2023-01-01T13:00:17;3.60;;;1.60;;
5742;SDS011;2896;53.500;10.020;2023-01-01T13:02:46;5.00;;;1.60;;
5742;SDS011;2896;53.500;10.020;2023-01-01T13:05:17;3.93;;;1.60;;
5742;SDS011;2896;53.500;10.020;2023-01-01T13:07:47;6.50;;;1.60;;
5742;SDS011;2896;53.500;10.020;2023-01-01T13:10:19;8.10;;;1.87;;
5742;SDS011;2896;53.500;10.020;2023-01-01T13:12:50;4.53;;;2.17;;
5742;SDS011;2896;53.500;10.020;2023-01-01T13:15:40;13.10;;;2.30;;
5742;SDS011;2896;53.500;10.020;2023-01-01T13:21:05;8.07;;;2.10;;
5742;SDS011;2896;53.500;10.020;2023-01-01T13:23:48;7.87;;;2.40;;
5742;SDS011;2896;53.500;10.020;2023-01-01T13:31:59;8.63;;;2.17;;
5742;SDS011;2896;53.500;10.020;2023-01-01T13:34:30;5.63;;;2.13;;
5742;SDS011;2896;53.500;10.020;2023-01-01T13:40:00;8.50;;;1.93;;
5742;SDS011;2896;53.500;10.020;2023-01-01T13:42:37;3.07;;;1.93;;
5742;SDS011;2896;53.500;10.020;2023-01-01T13:45:17;6.13;;;1.60;;
5742;SDS011;2896;53.500;10.020;2023-01-01T13:47:51;5.67;;;1.73;;
5742;SDS011;2896;53.500;10.020;2023-01-01T13:50:35;7.20;;;1.50;;
5742;SDS011;2896;53.500;10.020;2023-01-01T13:53:11;10.07;;;2.27;;
5742;SDS011;2896;53.500;10.020;2023-01-01T13:55:58;9.20;;;1.97;;
5742;SDS011;2896;53.500;10.020;2023-01-01T13:58:47;8.13;;;2.27;;
5742;SDS011;2896;53.500;10.020;2023-01-01T14:01:43;3.50;;;1.80;;
5742;SDS011;2896;53.500;10.020;2023-01-01T14:04:29;13.03;;;2.93;;
5742;SDS011;2896;53.500;10.020;2023-01-01T14:07:02;8.60;;;2.10;;
5742;SDS011;2896;53.500;10.020;2023-01-01T14:09:38;3.80;;;1.70;;
5742;SDS011;2896;53.500;10.020;2023-01-01T14:12:09;4.03;;;2.03;;
5742;SDS011;2896;53.500;10.020;2023-01-01T14:14:42;4.50;;;1.50;;
5742;SDS011;2896;53.500;10.020;2023-01-01T14:17:10;3.37;;;2.00;;
5742;SDS011;2896;53.500;10.020;2023-01-01T14:19:38;7.93;;;1.60;;
5742;SDS011;2896;53.500;10.020;2023-01-01T14:22:06;9.17;;;2.00;;
5742;SDS011;2896;53.500;10.020;2023-01-01T14:24:36;8.33;;;2.43;;
5742;SDS011;2896;53.500;10.020;2023-01-01T14:27:06;8.30;;;1.77;;
5742;SDS011;2896;53.500;10.020;2023-01-01T14:29:34;3.73;;;1.80;;
5742;SDS011;2896;53.500;10.020;2023-01-01T14:32:11;15.27;;;2.17;;
5742;SDS011;2896;53.500;10.020;2023-01-01T14:34:39;4.90;;;2.20;;
5742;SDS011;2896;53.500;10.020;2023-01-01T14:37:18;6.27;;;1.80;;
5742;SDS011;2896;53.500;10.020;2023-01-01T14:39:46;6.10;;;1.90;;
5742;SDS011;2896;53.500;10.020;2023-01-01T14:42:34;7.97;;;2.00;;
5742;SDS011;2896;53.500;10.020;2023-01-01T14:45:03;11.60;;;1.70;;
5742;SDS011;2896;53.500;10.020;2023-01-01T14:47:31;7.87;;;2.50;;
5742;SDS011;2896;53.500;10.020;2023-01-01T14:50:01;9.50;;;2.27;;
5742;SDS011;2896;53.500;10.020;2023-01-01T14:52:30;2.80;;;1.67;;
5742;SDS011;2896;53.500;10.020;2023-01-01T14:54:59;7.73;;;2.23;;
5742;SDS011;2896;53.500;10.020;2023-01-01T14:57:29;8.13;;;2.33;;
5742;SDS011;2896;53.500;10.020;2023-01-01T14:59:58;19.70;;;3.10;;
5742;SDS011;2896;53.500;10.020;2023-01-01T15:02:26;9.37;;;2.97;;
5742;SDS011;2896;53.500;10.020;2023-01-01T15:04:54;20.27;;;3.80;;
5742;SDS011;2896;53.500;10.020;2023-01-01T15:07:23;9.90;;;2.73;;
5742;SDS011;2896;53.500;10.020;2023-01-01T15:09:51;7.60;;;2.57;;
5742;SDS011;2896;53.500;10.020;2023-01-01T15:12:20;14.20;;;2.60;;
5742;SDS011;2896;53.500;10.020;2023-01-01T15:14:48;18.43;;;4.13;;
5742;SDS011;2896;53.500;10.020;2023-01-01T15:17:16;14.13;;;3.30;;
5742;SDS011;2896;53.500;10.020;2023-01-01T15:22:26;10.90;;;2.60;;
5742;SDS011;2896;53.500;10.020;2023-01-01T15:24:55;7.37;;;2.03;;
5742;SDS011;2896;53.500;10.020;2023-01-01T15:27:23;13.40;;;2.70;;
5742;SDS011;2896;53.500;10.020;2023-01-01T15:29:52;9.47;;;2.90;;
5742;SDS011;2896;53.500;10.020;2023-01-01T15:32:22;4.43;;;2.60;;
5742;SDS011;2896;53.500;10.020;2023-01-01T15:34:52;15.03;;;2.47;;